createdAt,value
2024-02-06T00:00:05.205Z,96978.22
2024-02-06T00:02:34.990Z,96976.78
2024-02-06T00:05:03.161Z,96964.00
2024-02-06T00:07:35.533Z,96950.78
2024-02-06T00:10:03.355Z,96966.03
2024-02-06T00:12:30.391Z,96938.56
2024-02-06T00:14:56.998Z,96968.03
2024-02-06T00:17:23.653Z,96964.41
2024-02-06T00:19:50.547Z,96974.84
2024-02-06T00:22:17.265Z,96975.44
2024-02-06T00:24:43.895Z,96966.22
2024-02-06T00:27:10.619Z,96960.63
2024-02-06T00:29:37.190Z,96964.03
2024-02-06T00:32:04.378Z,96951.59
2024-02-06T00:34:31.224Z,96942.00
2024-02-06T00:36:58.109Z,96957.00
2024-02-06T00:39:24.741Z,96959.00
2024-02-06T00:41:51.425Z,96963.41
2024-02-06T00:44:20.356Z,96982.06
2024-02-06T00:46:46.966Z,96974.84
2024-02-06T00:49:13.947Z,96970.44
2024-02-06T00:51:40.733Z,96971.59
2024-02-06T00:54:07.317Z,96969.19
2024-02-06T00:56:33.953Z,96982.44
2024-02-06T00:59:00.715Z,96980.44
2024-02-06T01:01:27.368Z,96983.59
2024-02-06T01:03:54.050Z,96982.97
2024-02-06T01:06:22.868Z,96979.91
2024-02-06T01:08:50.618Z,96982.09
2024-02-06T01:11:17.295Z,96982.25
2024-02-06T01:13:44.039Z,96972.88
2024-02-06T01:16:10.886Z,96975.66
2024-02-06T01:18:37.636Z,96965.44
2024-02-06T01:21:04.823Z,96979.28
2024-02-06T01:23:31.676Z,96998.84
2024-02-06T01:25:58.216Z,97002.53
2024-02-06T01:28:25.004Z,96988.56
2024-02-06T01:30:51.803Z,96978.28
2024-02-06T01:33:18.640Z,96999.53
2024-02-06T01:35:45.301Z,96990.84
2024-02-06T01:38:14.326Z,97000.38
2024-02-06T01:40:43.992Z,97007.03
2024-02-06T01:43:11.890Z,97004.09
2024-02-06T01:45:38.589Z,96979.16
2024-02-06T01:48:06.587Z,96999.00
2024-02-06T01:50:34.475Z,97004.28
2024-02-06T01:53:01.334Z,96996.56
2024-02-06T01:55:28.562Z,96984.75
2024-02-06T01:57:55.566Z,97002.25
2024-02-06T02:00:22.391Z,97005.75
2024-02-06T02:02:50.046Z,96992.13
2024-02-06T02:05:16.831Z,96990.00
2024-02-06T02:07:45.023Z,97005.03
2024-02-06T02:10:11.714Z,96990.94
2024-02-06T02:12:39.438Z,97005.81
2024-02-06T02:15:06.692Z,96996.94
2024-02-06T02:17:33.370Z,96988.66
2024-02-06T02:20:00.055Z,96989.41
2024-02-06T02:22:27.543Z,96983.16
2024-02-06T02:24:54.291Z,96980.78
2024-02-06T02:27:21.545Z,96960.81
2024-02-06T02:29:51.821Z,96983.97
2024-02-06T02:32:19.331Z,96986.56
2024-02-06T02:34:50.111Z,96982.69
2024-02-06T02:37:17.062Z,96982.34
2024-02-06T02:39:45.016Z,96983.63
2024-02-06T02:42:12.764Z,96985.34
2024-02-06T02:44:39.497Z,96983.56
2024-02-06T02:47:06.310Z,96978.19
2024-02-06T02:49:33.049Z,96988.56
2024-02-06T02:51:59.869Z,96973.34
2024-02-06T02:54:29.500Z,96970.88
2024-02-06T02:56:57.079Z,96978.66
2024-02-06T02:59:24.111Z,96982.19
2024-02-06T03:01:51.041Z,96979.31
2024-02-06T03:04:17.818Z,96975.81
2024-02-06T03:06:45.803Z,96979.66
2024-02-06T03:09:16.318Z,96978.75
2024-02-06T03:11:42.985Z,96981.22
2024-02-06T03:14:09.756Z,96977.44
2024-02-06T03:16:36.485Z,96986.28
2024-02-06T03:19:03.847Z,96965.81
2024-02-06T03:21:30.568Z,96983.25
2024-02-06T03:23:57.163Z,96965.56
2024-02-06T03:26:23.763Z,96983.97
2024-02-06T03:28:50.369Z,96983.34
2024-02-06T03:31:17.196Z,96981.47
2024-02-06T03:33:43.916Z,96982.84
2024-02-06T03:36:10.532Z,96983.63
2024-02-06T03:38:37.202Z,96962.50
2024-02-06T03:41:03.883Z,96973.47
2024-02-06T03:43:30.646Z,96989.69
2024-02-06T03:45:57.421Z,96991.03
2024-02-06T03:48:24.127Z,96996.41
2024-02-06T03:50:50.865Z,96987.19
2024-02-06T03:53:17.474Z,96994.72
2024-02-06T03:55:44.313Z,96986.09
2024-02-06T03:58:11.076Z,96970.28
2024-02-06T04:00:37.852Z,96983.38
2024-02-06T04:03:04.788Z,96985.84
2024-02-06T04:05:31.495Z,96982.75
2024-02-06T04:07:58.340Z,96961.63
2024-02-06T04:10:25.198Z,96977.91
2024-02-06T04:12:51.985Z,96974.69
2024-02-06T04:15:18.708Z,96961.41
2024-02-06T04:17:45.382Z,96982.72
2024-02-06T04:20:12.361Z,96967.19
2024-02-06T04:22:39.072Z,96976.19
2024-02-06T04:25:06.268Z,96984.63
2024-02-06T04:27:33.008Z,96976.31
2024-02-06T04:29:59.576Z,96980.91
2024-02-06T04:32:26.355Z,96972.00
2024-02-06T04:34:53.141Z,96970.81
2024-02-06T04:37:20.581Z,96972.66
2024-02-06T04:39:47.293Z,96960.66
2024-02-06T04:42:13.931Z,96968.75
2024-02-06T04:44:40.532Z,96967.94
2024-02-06T04:47:07.186Z,96955.84
2024-02-06T04:49:34.694Z,96965.72
2024-02-06T04:52:01.411Z,96951.84
2024-02-06T04:54:28.066Z,96967.31
2024-02-06T04:56:54.720Z,96966.44
2024-02-06T04:59:21.455Z,96965.66
2024-02-06T05:01:48.073Z,96959.56
2024-02-06T05:04:14.912Z,96957.50
2024-02-06T05:06:42.693Z,96955.75
2024-02-06T05:09:09.950Z,96966.78
2024-02-06T05:11:36.504Z,96965.00
2024-02-06T05:14:03.435Z,96958.41
2024-02-06T05:16:30.265Z,96965.94
2024-02-06T05:18:57.117Z,96966.66
2024-02-06T05:21:23.835Z,96953.53
2024-02-06T05:23:50.434Z,96960.09
2024-02-06T05:26:17.053Z,96957.41
2024-02-06T05:28:44.883Z,96960.97
2024-02-06T05:31:11.576Z,96960.03
2024-02-06T05:33:38.168Z,96962.09
2024-02-06T05:36:04.939Z,96956.56
2024-02-06T05:38:31.561Z,96955.91
2024-02-06T05:40:58.183Z,96955.31
2024-02-06T05:43:24.799Z,96957.22
2024-02-06T05:45:51.357Z,96962.44
2024-02-06T05:48:18.044Z,96962.28
2024-02-06T05:50:44.751Z,96963.53
2024-02-06T05:53:11.341Z,96952.78
2024-02-06T05:55:37.984Z,96963.19
2024-02-06T05:58:04.893Z,96968.34
2024-02-06T06:00:32.887Z,96965.34
2024-02-06T06:02:59.759Z,96967.50
2024-02-06T06:05:26.581Z,96967.34
2024-02-06T06:07:53.297Z,96958.41
2024-02-06T06:10:20.106Z,96966.91
2024-02-06T06:12:46.727Z,96975.75
2024-02-06T06:15:13.757Z,96970.66
2024-02-06T06:17:40.335Z,96964.00
2024-02-06T06:20:07.751Z,96980.84
2024-02-06T06:22:34.506Z,96979.50
2024-02-06T06:25:01.113Z,96991.09
2024-02-06T06:27:27.789Z,96981.16
2024-02-06T06:29:54.401Z,96990.59
2024-02-06T06:32:21.059Z,96991.66
2024-02-06T06:34:47.689Z,96989.97
2024-02-06T06:37:19.381Z,96992.03
2024-02-06T06:39:49.128Z,96973.63
2024-02-06T06:42:16.317Z,96963.31
2024-02-06T06:44:43.138Z,96987.97
2024-02-06T06:47:09.944Z,96973.63
2024-02-06T06:49:36.634Z,96981.00
2024-02-06T06:52:03.355Z,96983.47
2024-02-06T06:54:29.902Z,96980.13
2024-02-06T06:56:56.520Z,96993.16
2024-02-06T06:59:23.131Z,96977.50
2024-02-06T07:01:50.138Z,96962.34
2024-02-06T07:04:16.782Z,96977.69
2024-02-06T07:06:43.583Z,96978.25
2024-02-06T07:09:10.361Z,96967.25
2024-02-06T07:11:36.940Z,96970.44
2024-02-06T07:14:03.479Z,96971.94
2024-02-06T07:16:30.179Z,96970.53
2024-02-06T07:18:56.947Z,96978.69
2024-02-06T07:21:23.857Z,96973.81
2024-02-06T07:23:50.472Z,96979.16
2024-02-06T07:26:17.108Z,96976.56
2024-02-06T07:28:44.180Z,96981.00
2024-02-06T07:31:11.268Z,96984.06
2024-02-06T07:33:38.122Z,96984.34
2024-02-06T07:36:05.047Z,96985.50
2024-02-06T07:38:31.781Z,96983.41
2024-02-06T07:40:59.907Z,96981.00
2024-02-06T07:43:27.547Z,96987.28
2024-02-06T07:45:54.113Z,96987.53
2024-02-06T07:48:20.853Z,96989.16
2024-02-06T07:50:50.767Z,96989.19
2024-02-06T07:53:17.763Z,96992.16
2024-02-06T07:55:44.463Z,96995.91
2024-02-06T07:58:11.219Z,97003.06
2024-02-06T08:00:37.865Z,96990.78
2024-02-06T08:03:05.030Z,97001.97
2024-02-06T08:05:32.229Z,96994.25
2024-02-06T08:07:59.036Z,97000.03
2024-02-06T08:10:25.757Z,96992.44
2024-02-06T08:12:57.514Z,96989.66
2024-02-06T08:15:24.428Z,96975.66
2024-02-06T08:17:51.778Z,96998.47
2024-02-06T08:20:21.069Z,96994.69
2024-02-06T08:22:51.161Z,97000.06
2024-02-06T08:25:23.832Z,96990.69
2024-02-06T08:27:50.923Z,96997.50
2024-02-06T08:30:18.170Z,97004.69
2024-02-06T08:32:45.290Z,97008.13
2024-02-06T08:35:11.929Z,97001.69
2024-02-06T08:37:38.704Z,97011.72
2024-02-06T08:40:08.280Z,97011.34
2024-02-06T08:42:38.378Z,97010.53
2024-02-06T08:45:05.651Z,97011.13
2024-02-06T08:47:32.300Z,97013.53
2024-02-06T08:49:59.110Z,97000.13
2024-02-06T08:52:26.123Z,97002.72
2024-02-06T08:54:52.828Z,97003.28
2024-02-06T08:57:19.536Z,97012.91
2024-02-06T08:59:46.162Z,97012.72
2024-02-06T09:02:13.659Z,97009.75
2024-02-06T09:04:40.963Z,97000.09
2024-02-06T09:07:08.360Z,97005.72
2024-02-06T09:09:35.125Z,97004.94
2024-02-06T09:12:02.281Z,96994.88
2024-02-06T09:14:29.599Z,97002.91
2024-02-06T09:16:57.821Z,97004.31
2024-02-06T09:19:25.111Z,97003.94
2024-02-06T09:21:51.861Z,97000.28
2024-02-06T09:24:18.401Z,97012.13
2024-02-06T09:26:44.991Z,97013.50
2024-02-06T09:29:11.713Z,97011.72
2024-02-06T09:31:39.911Z,97012.88
2024-02-06T09:34:06.592Z,96999.84
2024-02-06T09:36:33.368Z,96987.78
2024-02-06T09:38:59.970Z,97003.25
2024-02-06T09:41:26.960Z,96989.97
2024-02-06T09:43:53.730Z,96988.34
2024-02-06T09:46:20.835Z,97002.78
2024-02-06T09:48:47.532Z,96987.19
2024-02-06T09:51:14.806Z,96995.78
2024-02-06T09:53:42.048Z,97003.28
2024-02-06T09:56:09.469Z,96991.59
2024-02-06T09:58:37.508Z,96986.91
2024-02-06T10:01:06.451Z,96981.31
2024-02-06T10:03:35.885Z,96984.91
2024-02-06T10:06:05.108Z,96983.44
2024-02-06T10:08:31.732Z,96992.09
2024-02-06T10:10:58.779Z,96975.56
2024-02-06T10:13:25.857Z,96982.78
2024-02-06T10:15:52.609Z,96991.28
2024-02-06T10:18:19.510Z,96979.59
2024-02-06T10:20:47.724Z,96988.69
2024-02-06T10:23:19.367Z,96983.13
2024-02-06T10:25:47.778Z,97001.81
2024-02-06T10:28:25.585Z,96984.31
2024-02-06T10:30:53.021Z,96987.38
2024-02-06T10:33:19.936Z,96994.16
2024-02-06T10:35:46.977Z,96981.81
2024-02-06T10:38:15.115Z,96973.34
2024-02-06T10:40:42.732Z,96968.72
2024-02-06T10:43:37.247Z,96977.47
2024-02-06T10:46:00.673Z,96968.69
2024-02-06T10:48:28.584Z,96974.75
2024-02-06T10:51:02.712Z,96966.63
2024-02-06T10:53:29.960Z,96966.13
2024-02-06T10:56:05.825Z,96952.00
2024-02-06T10:58:41.319Z,96960.00
2024-02-06T11:01:12.275Z,96966.91
2024-02-06T11:03:56.210Z,96946.56
2024-02-06T11:06:29.032Z,96956.56
2024-02-06T11:08:57.857Z,96955.91
2024-02-06T11:11:24.833Z,96954.88
2024-02-06T11:13:52.602Z,96946.25
2024-02-06T11:16:22.780Z,96947.50
2024-02-06T11:19:07.768Z,96952.59
2024-02-06T11:21:40.010Z,96951.56
2024-02-06T11:24:08.214Z,96941.22
2024-02-06T11:26:34.999Z,96939.84
2024-02-06T11:29:08.116Z,96937.03
2024-02-06T11:31:37.378Z,96929.47
2024-02-06T11:34:19.531Z,96940.19
2024-02-06T11:36:47.345Z,96938.72
2024-02-06T11:39:14.254Z,96931.31
2024-02-06T11:41:42.208Z,96928.38
2024-02-06T11:44:13.517Z,96935.34
2024-02-06T11:46:55.870Z,96933.09
2024-02-06T11:49:24.277Z,96927.28
2024-02-06T11:51:55.046Z,96917.75
2024-02-06T11:54:23.197Z,96907.06
2024-02-06T11:56:51.197Z,96912.47
2024-02-06T11:59:18.401Z,96914.28
2024-02-06T12:01:45.712Z,96905.47
2024-02-06T12:04:12.721Z,96898.91
2024-02-06T12:06:39.601Z,96898.25
2024-02-06T12:09:09.941Z,96901.47
2024-02-06T12:11:43.750Z,96902.66
2024-02-06T12:14:15.604Z,96898.19
2024-02-06T12:16:43.836Z,96889.88
2024-02-06T12:19:11.512Z,96887.13
2024-02-06T12:21:38.234Z,96881.53
2024-02-06T12:24:06.657Z,96884.66
2024-02-06T12:26:34.719Z,96880.38
2024-02-06T12:29:09.002Z,96883.06
2024-02-06T12:31:39.592Z,96894.09
2024-02-06T12:34:07.661Z,96879.06
2024-02-06T12:36:35.975Z,96879.16
2024-02-06T12:39:14.263Z,96878.25
2024-02-06T12:41:41.138Z,96874.41
2024-02-06T12:44:13.425Z,96876.13
2024-02-06T12:46:42.794Z,96870.00
2024-02-06T12:49:09.801Z,96868.66
2024-02-06T12:51:37.689Z,96858.97
2024-02-06T12:54:04.598Z,96853.00
2024-02-06T12:56:31.450Z,96847.31
2024-02-06T12:58:58.228Z,96833.97
2024-02-06T13:01:25.367Z,96847.81
2024-02-06T13:03:59.205Z,96828.28
2024-02-06T13:06:35.378Z,96823.75
2024-02-06T13:09:02.048Z,96835.84
2024-02-06T13:11:28.657Z,96840.03
2024-02-06T13:13:56.421Z,96831.13
2024-02-06T13:16:23.701Z,96838.53
2024-02-06T13:18:58.644Z,96817.09
2024-02-06T13:21:25.871Z,96818.41
2024-02-06T13:23:53.049Z,96812.88
2024-02-06T13:26:23.315Z,96803.97
2024-02-06T13:28:59.737Z,96809.75
2024-02-06T13:31:33.243Z,96787.41
2024-02-06T13:34:04.727Z,96812.38
2024-02-06T13:36:35.202Z,96793.53
2024-02-06T13:39:07.656Z,96811.47
2024-02-06T13:41:34.533Z,96817.19
2024-02-06T13:44:01.239Z,96805.44
2024-02-06T13:46:29.455Z,96810.34
2024-02-06T13:48:56.490Z,96809.91
2024-02-06T13:51:23.264Z,96812.47
2024-02-06T13:53:49.976Z,96806.09
2024-02-06T13:56:18.463Z,96798.25
2024-02-06T13:58:45.512Z,96789.16
2024-02-06T14:01:12.630Z,96785.41
2024-02-06T14:03:39.344Z,96782.88
2024-02-06T14:06:06.299Z,96776.06
2024-02-06T14:08:33.916Z,96785.16
2024-02-06T14:11:00.550Z,96772.75
2024-02-06T14:13:27.460Z,96768.00
2024-02-06T14:15:57.646Z,96771.19
2024-02-06T14:18:24.981Z,96768.56
2024-02-06T14:20:52.084Z,96767.44
2024-02-06T14:23:19.406Z,96760.91
2024-02-06T14:25:46.218Z,96761.59
2024-02-06T14:28:12.888Z,96755.09
2024-02-06T14:30:40.784Z,96756.59
2024-02-06T14:33:07.608Z,96750.94
2024-02-06T14:35:35.318Z,96756.59
2024-02-06T14:38:02.804Z,96733.94
2024-02-06T14:40:30.023Z,96747.34
2024-02-06T14:42:56.846Z,96732.63
2024-02-06T14:45:23.417Z,96744.31
2024-02-06T14:47:50.170Z,96746.34
2024-02-06T14:50:17.046Z,96727.88
2024-02-06T14:52:43.884Z,96739.94
2024-02-06T14:55:10.942Z,96731.75
2024-02-06T14:57:37.981Z,96729.25
2024-02-06T15:00:07.076Z,96733.59
2024-02-06T15:02:34.027Z,96730.97
2024-02-06T15:05:01.056Z,96729.50
2024-02-06T15:07:28.046Z,96728.56
2024-02-06T15:09:56.615Z,96719.56
2024-02-06T15:12:24.714Z,96729.50
2024-02-06T15:14:51.477Z,96720.94
2024-02-06T15:17:18.235Z,96722.53
2024-02-06T15:19:46.995Z,96719.94
2024-02-06T15:22:14.763Z,96718.75
2024-02-06T15:24:41.778Z,96714.13
2024-02-06T15:27:08.432Z,96710.66
2024-02-06T15:29:35.043Z,96708.19
2024-02-06T15:32:02.107Z,96710.75
2024-02-06T15:34:28.841Z,96701.97
2024-02-06T15:36:57.137Z,96696.19
2024-02-06T15:39:23.908Z,96692.00
2024-02-06T15:41:50.540Z,96706.94
2024-02-06T15:44:17.764Z,96692.13
2024-02-06T15:46:45.281Z,96701.00
2024-02-06T15:49:12.209Z,96687.78
2024-02-06T15:51:38.877Z,96683.53
2024-02-06T15:54:08.380Z,96682.75
2024-02-06T15:56:38.577Z,96672.53
2024-02-06T15:59:05.644Z,96674.13
2024-02-06T16:01:32.477Z,96683.88
2024-02-06T16:03:59.204Z,96672.50
2024-02-06T16:06:25.820Z,96647.69
2024-02-06T16:08:52.517Z,96665.13
2024-02-06T16:11:19.416Z,96663.06
2024-02-06T16:13:46.265Z,96674.09
2024-02-06T16:16:19.114Z,96649.53
2024-02-06T16:18:45.737Z,96658.84
2024-02-06T16:21:13.779Z,96662.84
2024-02-06T16:23:47.701Z,96657.66
2024-02-06T16:26:14.630Z,96655.75
2024-02-06T16:28:41.607Z,96661.66
2024-02-06T16:31:08.412Z,96651.31
2024-02-06T16:33:35.511Z,96657.25
2024-02-06T16:36:02.761Z,96657.25
2024-02-06T16:38:29.509Z,96666.44
2024-02-06T16:40:56.209Z,96666.09
2024-02-06T16:43:23.331Z,96651.97
2024-02-06T16:45:50.000Z,96666.59
2024-02-06T16:48:16.718Z,96660.75
2024-02-06T16:50:43.355Z,96664.09
2024-02-06T16:53:09.921Z,96665.16
2024-02-06T16:55:36.561Z,96655.59
2024-02-06T16:58:04.461Z,96653.59
2024-02-06T17:00:31.109Z,96671.97
2024-02-06T17:02:58.024Z,96660.88
2024-02-06T17:05:25.652Z,96671.69
2024-02-06T17:07:52.480Z,96646.94
2024-02-06T17:10:19.176Z,96661.03
2024-02-06T17:12:46.767Z,96659.38
2024-02-06T17:15:13.389Z,96662.38
2024-02-06T17:17:40.052Z,96663.53
2024-02-06T17:20:07.655Z,96662.56
2024-02-06T17:22:35.051Z,96659.19
2024-02-06T17:25:02.290Z,96657.13
2024-02-06T17:27:29.075Z,96660.56
2024-02-06T17:29:56.212Z,96659.91
2024-02-06T17:32:22.823Z,96638.38
2024-02-06T17:34:49.611Z,96633.19
2024-02-06T17:37:16.264Z,96630.75
2024-02-06T17:39:42.931Z,96639.75
2024-02-06T17:42:09.493Z,96641.84
2024-02-06T17:44:36.054Z,96657.16
2024-02-06T17:47:02.703Z,96635.47
2024-02-06T17:49:29.492Z,96654.25
2024-02-06T17:51:58.248Z,96639.97
2024-02-06T17:54:25.963Z,96656.94
2024-02-06T17:56:52.564Z,96650.25
2024-02-06T17:59:19.495Z,96650.97
2024-02-06T18:01:46.632Z,96627.91
2024-02-06T18:04:13.805Z,96638.22
2024-02-06T18:06:43.961Z,96624.94
2024-02-06T18:09:11.599Z,96649.56
2024-02-06T18:11:41.356Z,96635.66
2024-02-06T18:14:08.164Z,96650.63
2024-02-06T18:16:53.589Z,96636.91
2024-02-06T18:19:20.378Z,96642.13
2024-02-06T18:21:47.215Z,96628.50
2024-02-06T18:24:13.841Z,96639.06
2024-02-06T18:26:40.587Z,96648.13
2024-02-06T18:29:07.207Z,96648.81
2024-02-06T18:31:34.054Z,96642.94
2024-02-06T18:34:00.729Z,96644.34
2024-02-06T18:36:27.335Z,96641.25
2024-02-06T18:38:55.539Z,96639.38
2024-02-06T18:41:23.483Z,96640.88
2024-02-06T18:43:51.342Z,96631.56
2024-02-06T18:46:18.524Z,96624.13
2024-02-06T18:48:45.716Z,96625.47
2024-02-06T18:51:20.314Z,96626.16
2024-02-06T18:53:47.099Z,96625.03
2024-02-06T18:56:14.018Z,96627.13
2024-02-06T18:58:41.995Z,96617.41
2024-02-06T19:01:08.974Z,96607.00
2024-02-06T19:03:35.764Z,96625.22
2024-02-06T19:06:02.658Z,96617.41
2024-02-06T19:08:29.507Z,96629.16
2024-02-06T19:10:56.426Z,96631.63
2024-02-06T19:13:23.154Z,96626.25
2024-02-06T19:15:50.136Z,96623.47
2024-02-06T19:18:17.254Z,96617.31
2024-02-06T19:20:46.517Z,96613.03
2024-02-06T19:23:14.748Z,96601.41
2024-02-06T19:25:47.044Z,96606.63
2024-02-06T19:28:14.788Z,96602.88
2024-02-06T19:30:42.245Z,96600.47
2024-02-06T19:33:10.968Z,96615.94
2024-02-06T19:35:38.540Z,96608.09
2024-02-06T19:38:05.226Z,96600.88
2024-02-06T19:40:31.976Z,96621.00
2024-02-06T19:42:58.707Z,96607.66
2024-02-06T19:45:25.359Z,96594.72
2024-02-06T19:47:52.114Z,96604.50
2024-02-06T19:50:18.975Z,96597.53
2024-02-06T19:52:49.045Z,96605.44
2024-02-06T19:55:17.110Z,96601.72
2024-02-06T19:57:43.961Z,96585.16
2024-02-06T20:00:11.574Z,96610.13
2024-02-06T20:02:38.311Z,96616.97
2024-02-06T20:05:06.320Z,96613.41
2024-02-06T20:07:33.369Z,96609.56
2024-02-06T20:10:00.080Z,96618.59
2024-02-06T20:12:26.730Z,96617.88
2024-02-06T20:14:53.361Z,96616.34
2024-02-06T20:17:20.788Z,96616.97
2024-02-06T20:19:47.510Z,96608.81
2024-02-06T20:22:14.190Z,96603.41
2024-02-06T20:24:42.132Z,96620.03
2024-02-06T20:27:08.884Z,96617.53
2024-02-06T20:29:36.107Z,96615.78
2024-02-06T20:32:02.969Z,96606.16
2024-02-06T20:34:30.138Z,96613.31
2024-02-06T20:36:56.841Z,96612.09
2024-02-06T20:39:23.445Z,96596.44
2024-02-06T20:41:50.050Z,96608.94
2024-02-06T20:44:16.654Z,96612.34
2024-02-06T20:46:44.027Z,96620.22
2024-02-06T20:49:11.081Z,96604.63
2024-02-06T20:51:37.940Z,96614.56
2024-02-06T20:54:05.114Z,96605.19
2024-02-06T20:56:31.746Z,96590.56
2024-02-06T20:58:58.355Z,96594.06
2024-02-06T21:01:24.943Z,96595.06
2024-02-06T21:03:51.627Z,96598.28
2024-02-06T21:06:18.276Z,96608.53
2024-02-06T21:08:45.206Z,96610.84
2024-02-06T21:11:11.844Z,96604.53
2024-02-06T21:13:38.587Z,96607.59
2024-02-06T21:16:05.786Z,96605.16
2024-02-06T21:18:32.768Z,96610.84
2024-02-06T21:20:59.453Z,96586.56
2024-02-06T21:23:28.115Z,96596.81
2024-02-06T21:25:54.998Z,96587.84
2024-02-06T21:28:21.679Z,96596.91
2024-02-06T21:30:48.288Z,96593.53
2024-02-06T21:33:15.744Z,96592.56
2024-02-06T21:35:42.590Z,96591.53
2024-02-06T21:38:10.330Z,96589.59
2024-02-06T21:40:37.784Z,96595.81
2024-02-06T21:43:04.826Z,96589.50
2024-02-06T21:45:31.471Z,96587.84
2024-02-06T21:47:58.151Z,96593.44
2024-02-06T21:50:24.767Z,96587.44
2024-02-06T21:52:51.459Z,96578.50
2024-02-06T21:55:18.149Z,96582.28
2024-02-06T21:57:45.014Z,96581.00
2024-02-06T22:00:13.208Z,96590.31
2024-02-06T22:02:41.427Z,96583.81
2024-02-06T22:05:08.361Z,96566.84
2024-02-06T22:07:35.359Z,96563.84
2024-02-06T22:10:02.077Z,96571.94
2024-02-06T22:12:28.626Z,96555.00
2024-02-06T22:14:55.199Z,96549.66
2024-02-06T22:17:21.869Z,96552.69
2024-02-06T22:19:50.093Z,96541.09
2024-02-06T22:22:18.170Z,96542.31
2024-02-06T22:24:45.766Z,96539.19
2024-02-06T22:27:12.410Z,96528.13
2024-02-06T22:29:40.292Z,96532.00
2024-02-06T22:32:07.951Z,96508.22
2024-02-06T22:34:35.631Z,96528.06
2024-02-06T22:37:03.469Z,96515.97
2024-02-06T22:39:30.192Z,96529.31
2024-02-06T22:41:57.153Z,96527.22
2024-02-06T22:44:23.816Z,96518.44
2024-02-06T22:46:50.576Z,96528.59
2024-02-06T22:49:17.278Z,96521.22
2024-02-06T22:51:43.865Z,96523.56
2024-02-06T22:54:10.552Z,96516.19
2024-02-06T22:56:37.845Z,96504.75
2024-02-06T22:59:05.381Z,96499.78
2024-02-06T23:17:25.057Z,96504.56
2024-02-06T23:19:53.958Z,96496.34
2024-02-06T23:22:20.883Z,96501.13
2024-02-06T23:24:47.528Z,96502.06
2024-02-06T23:27:14.284Z,96498.00
2024-02-06T23:29:40.899Z,96497.03
2024-02-06T23:32:07.908Z,96485.22
2024-02-06T23:34:34.550Z,96490.25
2024-02-06T23:37:01.143Z,96488.28
2024-02-06T23:39:27.812Z,96493.97
2024-02-06T23:41:54.476Z,96475.22
2024-02-06T23:44:22.489Z,96493.25
2024-02-06T23:46:49.288Z,96490.00
2024-02-06T23:49:16.019Z,96484.88
2024-02-06T23:51:42.714Z,96480.84
2024-02-06T23:54:09.599Z,96473.66
2024-02-06T23:56:36.335Z,96474.41
2024-02-06T23:59:03.133Z,96470.66
